Time;durP1;ratioP1;P1;durP2;ratioP2;P2;SDS_P1;SDS_P2;PMS_P1;PMS_P2;Temp;Humidity;BMP_temperature;BMP_pressure;BME280_temperature;BME280_humidity;BME280_pressure;Samples;Min_cycle;Max_cycle;Signal;HPM_P1;HPM_P2
2023/08/16 00:00:52;;;;;;;7.78;7.00;;;;;;;22.60;100.00;100254.44;5138391;28;20099;-58
2023/08/16 00:03:18;;;;;;;10.75;7.47;;;;;;;22.66;100.00;100247.94;5138788;28;20055;-58
2023/08/16 00:05:45;;;;;;;8.02;6.18;;;;;;;22.83;100.00;100253.69;5138624;28;20058;-58
2023/08/16 00:08:11;;;;;;;11.32;7.53;;;;;;;22.58;100.00;100251.25;5138476;27;20141;-62
2023/08/16 00:10:38;;;;;;;9.75;7.57;;;;;;;22.74;100.00;100248.63;5138522;28;20106;-61
2023/08/16 00:13:04;;;;;;;8.30;6.82;;;;;;;22.68;100.00;100247.50;5138307;28;20083;-60
2023/08/16 00:15:30;;;;;;;11.60;6.82;;;;;;;22.71;100.00;100247.47;5138576;28;20083;-61
2023/08/16 00:17:56;;;;;;;10.13;7.10;;;;;;;22.66;100.00;100238.75;5138533;28;20051;-63
2023/08/16 00:20:26;;;;;;;10.50;7.45;;;;;;;22.62;100.00;100261.16;5138376;28;20452;-61
2023/08/16 00:22:52;;;;;;;9.50;6.97;;;;;;;22.60;100.00;100262.81;5138069;28;20302;-62
2023/08/16 00:25:19;;;;;;;8.48;7.10;;;;;;;22.64;100.00;100257.94;5138201;28;20123;-59
2023/08/16 00:27:45;;;;;;;10.18;8.20;;;;;;;22.42;100.00;100249.06;5137983;28;20082;-60
2023/08/16 00:30:12;;;;;;;11.20;7.60;;;;;;;22.57;100.00;100258.06;5138368;28;20095;-62
2023/08/16 00:32:38;;;;;;;8.40;6.85;;;;;;;22.55;100.00;100256.44;5137877;28;20086;-62
2023/08/16 00:35:04;;;;;;;8.55;7.60;;;;;;;22.45;100.00;100259.41;5138070;28;20147;-61
2023/08/16 00:37:30;;;;;;;13.55;8.02;;;;;;;22.54;100.00;100254.88;5137866;27;20061;-60
2023/08/16 00:39:56;;;;;;;13.20;7.35;;;;;;;22.47;100.00;100260.56;5137862;28;20047;-60
2023/08/16 00:42:23;;;;;;;9.10;8.20;;;;;;;22.40;100.00;100263.47;5137882;28;20058;-59
2023/08/16 00:44:49;;;;;;;13.07;7.93;;;;;;;22.32;100.00;100261.94;5137884;28;20047;-59
2023/08/16 00:47:15;;;;;;;14.88;8.70;;;;;;;22.17;100.00;100272.53;5138085;28;20363;-59
2023/08/16 00:49:41;;;;;;;10.43;8.20;;;;;;;22.36;100.00;100267.50;5137776;28;20328;-61
2023/08/16 00:52:08;;;;;;;10.75;8.05;;;;;;;22.38;100.00;100270.66;5137874;28;20051;-59
2023/08/16 00:54:34;;;;;;;11.80;8.45;;;;;;;22.30;100.00;100267.19;5136973;27;20511;-61
2023/08/16 00:57:01;;;;;;;13.20;8.10;;;;;;;22.39;100.00;100269.44;5137989;28;20051;-61
2023/08/16 00:59:28;;;;;;;9.43;8.07;;;;;;;22.38;100.00;100262.28;5137625;28;20051;-61
2023/08/16 01:01:54;;;;;;;9.18;8.27;;;;;;;22.41;100.00;100265.03;5137750;28;20146;-61
2023/08/16 01:04:21;;;;;;;13.10;8.45;;;;;;;22.42;100.00;100266.59;5137743;28;20047;-59
2023/08/16 01:06:46;;;;;;;10.35;8.30;;;;;;;22.38;100.00;100260.28;5137637;28;20047;-61
2023/08/16 01:09:12;;;;;;;18.50;8.50;;;;;;;22.31;100.00;100265.97;5137580;27;20057;-61
2023/08/16 01:11:44;;;;;;;8.38;7.47;;;;;;;22.16;100.00;100262.56;5137229;28;20093;-61
2023/08/16 01:14:13;;;;;;;9.05;7.80;;;;;;;22.27;100.00;100271.59;5137570;28;20180;-60
2023/08/16 01:16:41;;;;;;;10.70;8.50;;;;;;;22.21;100.00;100267.69;5137418;28;20421;-60
2023/08/16 01:19:14;;;;;;;10.10;8.02;;;;;;;22.15;100.00;100274.13;5137527;28;20172;-61
2023/08/16 01:21:46;;;;;;;12.50;8.20;;;;;;;22.16;100.00;100273.75;5137215;28;20051;-58
2023/08/16 01:24:22;;;;;;;13.10;8.68;;;;;;;22.07;100.00;100270.63;5137728;28;20353;-59
2023/08/16 01:26:49;;;;;;;9.95;7.78;;;;;;;22.15;100.00;100271.31;5137161;28;20084;-59
2023/08/16 01:29:17;;;;;;;14.95;8.70;;;;;;;22.04;100.00;100277.81;5137345;28;20210;-62
2023/08/16 01:31:44;;;;;;;9.63;8.05;;;;;;;22.01;100.00;100266.69;5137336;28;20051;-59
2023/08/16 01:34:10;;;;;;;9.70;8.70;;;;;;;22.00;100.00;100271.50;5136997;28;20054;-61
2023/08/16 01:36:36;;;;;;;9.25;8.05;;;;;;;21.92;100.00;100272.75;5137392;28;20078;-60
2023/08/16 01:39:02;;;;;;;11.30;7.88;;;;;;;21.95;100.00;100271.16;5137026;27;20043;-62
2023/08/16 01:41:35;;;;;;;11.48;8.10;;;;;;;21.92;100.00;100267.19;5137376;28;20082;-61
2023/08/16 01:44:02;;;;;;;14.07;8.43;;;;;;;21.95;100.00;100262.78;5137044;28;20130;-63
2023/08/16 01:46:30;;;;;;;12.75;8.60;;;;;;;21.89;100.00;100264.44;5137370;28;20058;-61
2023/08/16 01:48:57;;;;;;;9.35;7.72;;;;;;;21.82;100.00;100273.66;5136919;28;20051;-63
2023/08/16 01:51:23;;;;;;;11.90;8.57;;;;;;;21.83;100.00;100267.69;5137214;28;20427;-61
2023/08/16 01:53:53;;;;;;;17.30;8.88;;;;;;;21.76;100.00;100266.94;5137130;28;20130;-61
2023/08/16 01:56:19;;;;;;;15.13;8.35;;;;;;;21.74;100.00;100270.16;5136755;28;20055;-62
2023/08/16 01:58:45;;;;;;;12.23;8.88;;;;;;;21.70;100.00;100277.78;5137089;28;20135;-62
2023/08/16 02:01:12;;;;;;;9.90;8.82;;;;;;;21.58;100.00;100269.91;5136872;28;20089;-62
2023/08/16 02:03:38;;;;;;;14.30;9.13;;;;;;;21.49;100.00;100258.44;5136957;28;20058;-61
2023/08/16 02:06:04;;;;;;;12.77;9.95;;;;;;;21.59;100.00;100254.75;5137261;27;20184;-61
2023/08/16 02:08:30;;;;;;;11.40;9.07;;;;;;;21.55;100.00;100259.59;5140609;27;20046;-61
2023/08/16 02:10:56;;;;;;;11.30;9.07;;;;;;;21.53;100.00;100250.84;5140320;28;20058;-61
2023/08/16 02:13:22;;;;;;;13.20;9.43;;;;;;;21.54;100.00;100253.22;5140506;28;20054;-62
2023/08/16 02:15:48;;;;;;;13.93;9.75;;;;;;;21.52;100.00;100254.84;5140125;28;20058;-63
2023/08/16 02:18:14;;;;;;;15.57;10.43;;;;;;;21.47;100.00;100249.72;5140577;28;20137;-62
2023/08/16 02:20:41;;;;;;;11.43;8.50;;;;;;;21.51;100.00;100259.63;5140359;28;20057;-61
2023/08/16 02:23:07;;;;;;;18.08;10.82;;;;;;;21.43;100.00;100254.53;5140293;28;20097;-62
2023/08/16 02:25:33;;;;;;;11.75;9.30;;;;;;;21.39;100.00;100251.75;5140317;28;20137;-62
2023/08/16 02:27:59;;;;;;;10.90;9.80;;;;;;;21.26;100.00;100240.31;5140463;28;20051;-63
2023/08/16 02:30:25;;;;;;;11.00;8.82;;;;;;;21.35;100.00;100225.91;5139840;28;20051;-63
2023/08/16 02:32:51;;;;;;;14.70;9.35;;;;;;;21.43;100.00;100238.59;5140070;28;20154;-60
2023/08/16 02:35:18;;;;;;;10.50;9.07;;;;;;;21.43;100.00;100243.38;5140093;28;20380;-60
2023/08/16 02:37:44;;;;;;;13.73;9.45;;;;;;;21.42;100.00;100247.34;5139816;27;20055;-61
2023/08/16 02:40:11;;;;;;;12.45;10.05;;;;;;;21.41;100.00;100252.16;5140105;28;20461;-63
2023/08/16 02:42:37;;;;;;;15.10;9.18;;;;;;;21.42;100.00;100252.94;5139689;28;20340;-62
2023/08/16 02:45:04;;;;;;;15.48;9.77;;;;;;;21.32;100.00;100243.44;5140179;28;20047;-62
2023/08/16 02:47:29;;;;;;;15.18;9.40;;;;;;;21.33;100.00;100248.59;5139947;28;20061;-62
2023/08/16 02:49:55;;;;;;;13.25;9.88;;;;;;;21.22;100.00;100247.09;5139532;28;20051;-62
2023/08/16 02:52:22;;;;;;;16.92;9.95;;;;;;;21.25;100.00;100235.91;5139506;28;20090;-63
2023/08/16 02:54:48;;;;;;;11.68;9.55;;;;;;;21.15;100.00;100236.78;5139954;28;20063;-63
2023/08/16 02:57:15;;;;;;;10.65;8.80;;;;;;;21.17;100.00;100242.75;5139829;28;20145;-63
2023/08/16 02:59:46;;;;;;;11.98;10.13;;;;;;;21.14;100.00;100241.59;5139583;28;20365;-61
2023/08/16 03:02:12;;;;;;;15.63;10.20;;;;;;;21.17;100.00;100228.81;5139806;28;20055;-60
2023/08/16 03:04:39;;;;;;;16.98;10.30;;;;;;;21.10;100.00;100220.53;5139472;28;20138;-62
2023/08/16 03:07:06;;;;;;;14.05;9.13;;;;;;;21.31;100.00;100236.28;5139785;28;20055;-62
2023/08/16 03:09:32;;;;;;;14.00;10.32;;;;;;;21.22;100.00;100239.53;5139651;27;20062;-61
2023/08/16 03:11:58;;;;;;;12.80;10.50;;;;;;;21.09;100.00;100224.50;5139687;28;20051;-62
2023/08/16 03:14:24;;;;;;;14.07;10.85;;;;;;;21.22;100.00;100231.16;5139205;28;20333;-62
2023/08/16 03:16:50;;;;;;;12.95;9.25;;;;;;;21.29;100.00;100242.28;5139155;27;20427;-64
2023/08/16 03:19:16;;;;;;;13.27;9.77;;;;;;;21.30;100.00;100251.44;5139131;28;20413;-61
2023/08/16 03:21:42;;;;;;;11.98;9.55;;;;;;;21.22;100.00;100236.72;5139334;28;20085;-61
2023/08/16 03:24:46;;;;;;;20.58;9.68;;;;;;;21.21;100.00;100251.09;5139380;28;20150;-60
2023/08/16 03:27:13;;;;;;;12.10;11.00;;;;;;;21.41;100.00;100245.78;5139141;28;20157;-61
2023/08/16 03:29:39;;;;;;;12.20;8.55;;;;;;;21.49;100.00;100266.81;5139389;28;20383;-61
2023/08/16 03:32:05;;;;;;;12.85;9.35;;;;;;;22.03;100.00;100286.63;5138885;28;20146;-62
2023/08/16 03:34:31;;;;;;;15.80;9.48;;;;;;;22.25;100.00;100320.69;5139337;28;20051;-62
2023/08/16 03:36:57;;;;;;;10.63;8.48;;;;;;;22.54;100.00;100310.78;5138860;28;20100;-60
2023/08/16 03:39:23;;;;;;;14.95;8.70;;;;;;;22.66;100.00;100275.06;5139249;27;20046;-61
2023/08/16 03:41:50;;;;;;;11.40;8.73;;;;;;;23.00;100.00;100225.47;5138770;28;20055;-60
2023/08/16 03:44:16;;;;;;;10.95;7.93;;;;;;;23.06;100.00;100192.25;5138706;28;20442;-59
2023/08/16 03:46:42;;;;;;;11.60;8.80;;;;;;;23.36;100.00;100070.19;5138711;28;20436;-60
2023/08/16 03:49:08;;;;;;;14.70;8.93;;;;;;;23.63;100.00;99963.69;5138814;28;20055;-59
2023/08/16 03:51:35;;;;;;;12.93;8.35;;;;;;;23.89;100.00;99934.69;5138874;28;20051;-59
2023/08/16 03:54:01;;;;;;;13.32;9.27;;;;;;;24.30;100.00;99689.50;5138723;28;20074;-61
2023/08/16 03:56:27;;;;;;;11.38;8.52;;;;;;;24.56;100.00;99529.81;5138924;28;20380;-59
2023/08/16 03:58:53;;;;;;;14.65;9.05;;;;;;;24.53;100.00;99509.06;5138519;28;20123;-62
2023/08/16 04:01:20;;;;;;;15.50;8.50;;;;;;;24.89;100.00;99440.50;5138741;28;20051;-61
2023/08/16 04:03:46;;;;;;;10.45;8.18;;;;;;;25.14;100.00;99223.63;5138360;28;20464;-61
2023/08/16 04:06:12;;;;;;;10.43;7.95;;;;;;;25.54;100.00;99104.91;5138817;28;20050;-59
2023/08/16 04:08:39;;;;;;;14.70;7.28;;;;;;;25.56;100.00;99052.66;5138216;27;20055;-60
2023/08/16 04:11:05;;;;;;;11.35;7.53;;;;;;;25.72;100.00;99019.88;5138394;28;20471;-59
2023/08/16 04:13:31;;;;;;;9.45;7.93;;;;;;;26.21;100.00;98928.88;5138573;28;20058;-60
2023/08/16 04:15:57;;;;;;;10.60;7.32;;;;;;;26.18;100.00;98866.00;5138484;28;20088;-60
2023/08/16 04:18:24;;;;;;;11.05;8.20;;;;;;;26.52;100.00;98849.84;5138520;28;20055;-59
2023/08/16 04:20:49;;;;;;;10.65;6.97;;;;;;;26.73;100.00;98843.09;5138063;28;20083;-59
2023/08/16 04:23:15;;;;;;;11.52;7.38;;;;;;;26.80;100.00;98827.88;5138449;28;20138;-59
2023/08/16 04:25:41;;;;;;;8.70;6.60;;;;;;;26.64;100.00;98819.91;5137989;28;20059;-60
2023/08/16 04:28:07;;;;;;;8.27;7.50;;;;;;;26.72;100.00;98837.94;5138175;27;20138;-61
2023/08/16 04:30:34;;;;;;;13.20;7.57;;;;;;;26.48;100.00;98850.03;5137115;28;20080;-60
2023/08/16 04:33:00;;;;;;;9.75;7.28;;;;;;;27.23;100.00;98827.59;5138429;28;20093;-59
2023/08/16 04:35:27;;;;;;;12.45;7.60;;;;;;;27.82;100.00;98852.81;5137892;28;20051;-60
2023/08/16 04:37:53;;;;;;;9.50;7.85;;;;;;;27.82;100.00;98875.34;5138227;27;20090;-59
2023/08/16 04:40:18;;;;;;;11.85;7.75;;;;;;;27.41;100.00;98830.19;5137852;28;20055;-59
2023/08/16 04:42:44;;;;;;;10.38;7.03;;;;;;;28.09;100.00;98913.63;5138009;28;20134;-60
2023/08/16 04:45:11;;;;;;;18.05;7.50;;;;;;;27.82;100.00;98940.13;5137768;28;20051;-63
2023/08/16 04:47:37;;;;;;;9.25;6.43;;;;;;;27.79;100.00;98904.50;5137681;28;20089;-59
2023/08/16 04:50:06;;;;;;;8.98;6.45;;;;;;;28.49;100.00;98949.59;5137833;28;20043;-59
2023/08/16 04:52:32;;;;;;;9.57;7.30;;;;;;;28.18;100.00;98895.84;5137620;28;20055;-59
2023/08/16 04:54:59;;;;;;;9.60;7.03;;;;;;;29.22;100.00;99037.16;5137927;28;20058;-60
2023/08/16 04:57:25;;;;;;;10.90;6.50;;;;;;;29.40;100.00;99058.69;5137789;28;20051;-62
2023/08/16 04:59:51;;;;;;;13.60;7.80;;;;;;;29.52;100.00;99080.91;5137739;28;20519;-61
2023/08/16 05:02:17;;;;;;;9.07;7.07;;;;;;;29.70;100.00;99133.50;5137500;28;20051;-61
2023/08/16 05:04:43;;;;;;;10.50;6.97;;;;;;;29.99;100.00;99172.09;5137817;28;20086;-62
2023/08/16 05:07:09;;;;;;;10.65;6.82;;;;;;;30.11;100.00;99172.97;5137163;27;20051;-60
2023/08/16 05:09:36;;;;;;;9.80;6.60;;;;;;;30.32;100.00;99238.72;5137660;28;20057;-62
2023/08/16 05:12:02;;;;;;;8.77;6.13;;;;;;;30.28;100.00;99223.28;5137462;28;20312;-60
2023/08/16 05:14:28;;;;;;;10.57;6.57;;;;;;;30.57;100.00;99256.97;5137529;28;20047;-62
2023/08/16 05:16:54;;;;;;;6.85;6.18;;;;;;;30.72;100.00;99273.81;5137509;28;20047;-62
2023/08/16 05:19:20;;;;;;;9.23;6.38;;;;;;;30.92;100.00;99310.59;5137326;28;20137;-61
2023/08/16 05:21:45;;;;;;;11.88;6.72;;;;;;;31.21;100.00;99313.63;5137365;28;20055;-59
2023/08/16 05:24:11;;;;;;;10.23;6.78;;;;;;;31.23;100.00;99331.69;5136960;28;20043;-59
2023/08/16 05:26:38;;;;;;;9.43;6.53;;;;;;;31.17;100.00;99336.50;5137446;28;20141;-60
2023/08/16 05:29:04;;;;;;;11.77;7.05;;;;;;;31.23;100.00;99339.41;5137075;28;20138;-59
2023/08/16 05:31:30;;;;;;;9.85;6.07;;;;;;;31.18;100.00;99287.09;5137281;28;20340;-60
2023/08/16 05:33:56;;;;;;;9.23;6.50;;;;;;;31.46;100.00;99337.50;5137061;28;20169;-61
2023/08/16 05:36:22;;;;;;;8.98;6.68;;;;;;;31.79;100.00;99360.41;5137404;28;20133;-62
2023/08/16 05:38:47;;;;;;;8.48;6.28;;;;;;;31.79;100.00;99373.78;5136804;27;20430;-62
2023/08/16 05:41:14;;;;;;;9.85;7.15;;;;;;;31.67;100.00;99378.63;5139320;27;20082;-62
2023/08/16 05:43:40;;;;;;;11.88;6.95;;;;;;;31.72;100.00;99394.09;5140729;28;20130;-62
2023/08/16 05:46:06;;;;;;;7.93;5.90;;;;;;;31.78;100.00;99409.84;5140658;28;20399;-62
2023/08/16 05:48:33;;;;;;;13.20;8.95;;;;;;;32.47;100.00;99438.13;5140463;28;20051;-61
2023/08/16 05:50:59;;;;;;;13.52;6.38;;;;;;;32.77;100.00;99440.56;5140398;28;20176;-59
2023/08/16 05:53:24;;;;;;;10.02;6.20;;;;;;;32.72;100.00;99436.44;5140682;28;20043;-59
2023/08/16 05:55:50;;;;;;;11.60;6.85;;;;;;;32.21;100.00;99463.75;5140525;28;20400;-59
2023/08/16 05:58:16;;;;;;;12.27;6.80;;;;;;;32.33;100.00;99441.91;5140769;28;20046;-60
2023/08/16 06:00:45;;;;;;;15.70;9.13;;;;;;;32.99;100.00;99477.56;5140013;28;20464;-61
2023/08/16 06:03:11;;;;;;;12.68;6.80;;;;;;;33.15;100.00;99475.25;5140447;28;20383;-59
2023/08/16 06:05:37;;;;;;;12.38;6.40;;;;;;;32.88;100.00;99491.69;5140024;28;20443;-61
2023/08/16 06:08:04;;;;;;;8.95;6.85;;;;;;;33.34;100.00;99501.13;5139763;27;20047;-61
2023/08/16 06:10:30;;;;;;;9.40;6.45;;;;;;;33.66;100.00;99511.00;5140015;28;20073;-59
2023/08/16 06:12:56;;;;;;;10.15;6.75;;;;;;;34.12;100.00;99528.84;5139743;28;20328;-60
2023/08/16 06:15:22;;;;;;;12.73;6.10;;;;;;;34.10;100.00;99508.69;5139872;28;20047;-61
2023/08/16 06:17:49;;;;;;;14.48;6.95;;;;;;;33.73;100.00;99516.16;5139887;28;20059;-59
2023/08/16 06:20:15;;;;;;;12.82;7.15;;;;;;;33.29;100.00;99525.41;5139829;28;20378;-59
2023/08/16 06:22:41;;;;;;;12.25;7.00;;;;;;;32.95;100.00;99533.00;5139611;28;20142;-60
2023/08/16 06:25:08;;;;;;;12.27;7.50;;;;;;;33.74;100.00;99540.47;5140168;28;20138;-58
2023/08/16 06:27:34;;;;;;;16.55;6.80;;;;;;;34.32;100.00;99556.22;5139691;28;20298;-62
2023/08/16 06:30:00;;;;;;;13.98;6.80;;;;;;;34.06;100.00;99548.78;5140045;28;20047;-61
2023/08/16 06:32:26;;;;;;;19.17;6.93;;;;;;;34.74;100.00;99543.72;5139558;28;20451;-59
2023/08/16 06:34:52;;;;;;;16.23;7.10;;;;;;;35.00;100.00;99554.75;5139941;28;20055;-59
2023/08/16 06:37:18;;;;;;;12.82;6.22;;;;;;;35.39;100.00;99590.06;5139706;27;20147;-60
2023/08/16 06:39:44;;;;;;;13.60;6.53;;;;;;;34.13;100.00;99585.22;5139523;28;20134;-62
2023/08/16 06:42:10;;;;;;;17.10;8.38;;;;;;;34.31;100.00;99555.44;5139658;28;20138;-61
2023/08/16 06:44:36;;;;;;;14.70;6.90;;;;;;;34.13;100.00;99561.69;5139287;28;20137;-59
2023/08/16 06:47:02;;;;;;;16.70;6.60;;;;;;;34.71;100.00;99573.22;5139526;28;20051;-59
2023/08/16 06:49:30;;;;;;;14.27;6.13;;;;;;;35.66;100.00;99589.16;5139160;28;20451;-61
2023/08/16 06:51:56;;;;;;;15.20;6.57;;;;;;;35.14;100.00;99569.97;5138491;27;20405;-60
2023/08/16 06:54:22;;;;;;;13.32;7.13;;;;;;;34.56;100.00;99567.84;5139346;28;20216;-59
2023/08/16 06:56:49;;;;;;;10.48;6.45;;;;;;;35.33;100.00;99575.84;5139494;28;20358;-61
2023/08/16 06:59:15;;;;;;;15.55;6.40;;;;;;;35.87;100.00;99591.59;5139231;28;20106;-60
2023/08/16 07:01:41;;;;;;;14.90;8.25;;;;;;;35.72;100.00;99586.25;5139550;28;20436;-58
2023/08/16 07:04:07;;;;;;;12.07;6.65;;;;;;;35.27;100.00;99584.41;5139159;28;20441;-64
2023/08/16 07:06:33;;;;;;;16.58;6.20;;;;;;;34.44;100.00;99571.97;5139253;28;20051;-59
2023/08/16 07:09:00;;;;;;;8.07;6.57;;;;;;;34.72;100.00;99568.31;5138982;27;20134;-60
2023/08/16 07:11:26;;;;;;;13.48;6.45;;;;;;;35.73;100.00;99591.44;5138935;28;20051;-60
2023/08/16 07:13:52;;;;;;;13.38;6.35;;;;;;;35.52;100.00;99596.75;5138994;28;20138;-62
2023/08/16 07:16:19;;;;;;;13.15;7.53;;;;;;;35.96;100.00;99600.59;5138932;28;20108;-59
2023/08/16 07:18:45;;;;;;;12.57;6.72;;;;;;;35.82;100.00;99604.56;5139039;28;20104;-62
2023/08/16 07:21:11;;;;;;;16.05;6.60;;;;;;;36.12;100.00;99593.19;5138897;28;20051;-62
2023/08/16 07:23:38;;;;;;;10.90;6.85;;;;;;;36.43;100.00;99591.88;5139276;28;20053;-61
2023/08/16 07:26:04;;;;;;;12.55;6.22;;;;;;;36.37;100.00;99593.25;5138969;28;20066;-63
2023/08/16 07:28:30;;;;;;;10.52;6.10;;;;;;;36.23;100.00;99600.91;5138683;28;20055;-63
2023/08/16 07:30:56;;;;;;;14.63;6.95;;;;;;;36.02;100.00;99589.94;5138677;28;20086;-62
2023/08/16 07:33:22;;;;;;;9.95;5.88;;;;;;;35.83;100.00;99581.25;5139170;28;20073;-62
2023/08/16 07:35:49;;;;;;;14.32;6.75;;;;;;;35.87;100.00;99583.78;5138909;28;20083;-61
2023/08/16 07:38:15;;;;;;;13.27;6.35;;;;;;;35.68;100.00;99577.19;5138669;27;20058;-62
2023/08/16 07:40:46;;;;;;;12.05;6.43;;;;;;;36.03;100.00;99587.84;5139088;28;20370;-60
2023/08/16 07:43:13;;;;;;;15.15;6.90;;;;;;;36.59;100.00;99598.78;5138762;28;20069;-61
2023/08/16 07:45:39;;;;;;;13.00;5.53;;;;;;;35.48;100.00;99586.91;5138658;28;20399;-62
2023/08/16 07:48:05;;;;;;;12.50;6.38;;;;;;;36.64;100.00;99588.59;5138738;28;20420;-62
2023/08/16 07:50:31;;;;;;;10.65;6.18;;;;;;;36.81;100.00;99594.88;5139202;28;20081;-59
2023/08/16 07:52:57;;;;;;;15.23;6.97;;;;;;;36.44;100.00;99584.88;5138455;28;20128;-62
2023/08/16 07:55:29;;;;;;;11.60;6.82;;;;;;;36.84;100.00;99587.31;5138593;28;20094;-63
2023/08/16 07:57:55;;;;;;;9.77;6.32;;;;;;;36.55;100.00;99592.56;5138780;28;20377;-61
2023/08/16 08:00:21;;;;;;;11.55;7.03;;;;;;;36.37;100.00;99588.31;5138984;28;20129;-63
2023/08/16 08:02:48;;;;;;;11.63;7.40;;;;;;;36.38;100.00;99589.84;5138341;27;20055;-63
2023/08/16 08:05:15;;;;;;;10.65;6.60;;;;;;;35.98;100.00;99578.00;5138621;28;20144;-62
2023/08/16 08:07:41;;;;;;;10.18;6.15;;;;;;;37.76;100.00;99589.25;5138670;27;20050;-61
2023/08/16 08:10:07;;;;;;;16.23;6.80;;;;;;;37.88;100.00;99604.88;5138455;28;20073;-60
2023/08/16 08:12:34;;;;;;;11.73;5.85;;;;;;;37.05;100.00;99593.31;5138460;28;20150;-60
2023/08/16 08:14:59;;;;;;;14.75;7.60;;;;;;;38.07;100.00;99594.19;5138577;28;20138;-62
2023/08/16 08:17:27;;;;;;;17.10;7.00;;;;;;;37.94;98.50;99601.97;5138764;28;20051;-62
2023/08/16 08:19:53;;;;;;;11.55;5.90;;;;;;;38.01;100.00;99604.97;5137972;28;20441;-60
2023/08/16 08:22:19;;;;;;;10.65;5.82;;;;;;;37.03;100.00;99587.38;5138278;28;20152;-62
2023/08/16 08:24:45;;;;;;;10.43;5.53;;;;;;;36.11;100.00;99580.25;5138467;28;20082;-61
2023/08/16 08:27:11;;;;;;;13.75;6.20;;;;;;;36.36;100.00;99575.34;5138642;28;20043;-63
2023/08/16 08:29:38;;;;;;;14.35;6.38;;;;;;;37.53;100.00;99585.94;5138209;28;20058;-59
2023/08/16 08:32:05;;;;;;;10.35;6.10;;;;;;;36.39;100.00;99571.44;5138234;28;20058;-60
2023/08/16 08:34:32;;;;;;;9.05;5.72;;;;;;;36.96;100.00;99588.72;5137974;28;20151;-60
2023/08/16 08:36:59;;;;;;;10.60;5.78;;;;;;;37.60;100.00;99596.75;5137974;28;20055;-57
2023/08/16 08:39:27;;;;;;;11.60;6.15;;;;;;;37.17;100.00;99580.44;5137751;27;20053;-64
2023/08/16 08:41:55;;;;;;;14.13;6.05;;;;;;;35.63;100.00;99578.03;5137853;28;20062;-63
2023/08/16 08:44:22;;;;;;;9.48;5.55;;;;;;;37.07;100.00;99585.00;5138316;28;20043;-63
2023/08/16 08:46:49;;;;;;;9.75;5.80;;;;;;;37.26;100.00;99574.34;5140218;28;20115;-60
2023/08/16 08:49:15;;;;;;;9.02;5.63;;;;;;;36.85;100.00;99591.72;5139499;28;20370;-62
2023/08/16 08:51:42;;;;;;;12.63;7.35;;;;;;;37.12;100.00;99592.69;5138095;28;20137;-61
2023/08/16 08:54:08;;;;;;;9.50;6.53;;;;;;;37.62;100.00;99583.47;5138382;28;20299;-59
2023/08/16 08:56:36;;;;;;;12.55;6.63;;;;;;;37.99;99.42;99601.09;5138088;28;20047;-60
2023/08/16 08:59:03;;;;;;;14.70;6.47;;;;;;;37.37;99.90;99602.00;5137744;28;20074;-60
2023/08/16 09:01:30;;;;;;;9.82;5.57;;;;;;;36.61;100.00;99587.56;5137913;28;20112;-64
2023/08/16 09:03:59;;;;;;;8.68;6.30;;;;;;;37.00;100.00;99589.22;5137898;28;20047;-63
2023/08/16 09:06:26;;;;;;;10.18;5.60;;;;;;;36.05;100.00;99583.16;5137946;28;20086;-60
2023/08/16 09:08:53;;;;;;;10.13;6.18;;;;;;;36.13;100.00;99569.09;5137229;27;20058;-63
2023/08/16 09:11:20;;;;;;;7.88;5.55;;;;;;;35.28;100.00;99565.25;5137578;28;20051;-64
2023/08/16 09:13:46;;;;;;;8.07;5.22;;;;;;;36.04;100.00;99570.19;5137762;28;20058;-63
2023/08/16 09:16:12;;;;;;;9.68;5.72;;;;;;;36.63;100.00;99572.75;5137049;27;20062;-60
2023/08/16 09:18:46;;;;;;;8.13;6.28;;;;;;;36.83;100.00;99583.69;5137191;28;20043;-59
2023/08/16 09:21:16;;;;;;;7.55;5.25;;;;;;;37.84;99.79;99581.56;5138066;28;20180;-62
2023/08/16 09:23:42;;;;;;;14.10;5.97;;;;;;;36.83;100.00;99577.22;5137252;28;20043;-64
2023/08/16 09:26:14;;;;;;;11.02;5.57;;;;;;;36.85;100.00;99577.44;5137292;28;20070;-58
2023/08/16 09:28:40;;;;;;;6.70;5.72;;;;;;;35.54;100.00;99565.63;5136993;28;20051;-59
2023/08/16 09:31:06;;;;;;;9.35;5.50;;;;;;;35.06;100.00;99544.13;5136693;28;20043;-63
2023/08/16 09:33:35;;;;;;;10.13;5.32;;;;;;;35.86;100.00;99558.66;5137012;28;20423;-62
2023/08/16 09:36:01;;;;;;;8.30;6.20;;;;;;;36.56;100.00;99577.00;5136761;28;20302;-64
2023/08/16 09:38:27;;;;;;;12.98;5.65;;;;;;;36.62;100.00;99559.78;5137146;27;20134;-59
2023/08/16 09:40:54;;;;;;;10.07;6.43;;;;;;;36.13;100.00;99548.34;5136907;28;20413;-60
2023/08/16 09:43:20;;;;;;;13.85;5.90;;;;;;;37.01;100.00;99575.72;5137012;28;20154;-63
2023/08/16 09:45:48;;;;;;;8.10;5.80;;;;;;;37.13;100.00;99568.53;5136545;28;20047;-62
2023/08/16 09:48:14;;;;;;;10.40;5.65;;;;;;;36.03;100.00;99553.63;5136992;28;20062;-61
2023/08/16 09:50:40;;;;;;;6.65;5.18;;;;;;;34.95;100.00;99527.03;5136473;28;20051;-64
2023/08/16 09:53:06;;;;;;;9.90;5.88;;;;;;;35.80;100.00;99538.75;5136556;28;20138;-64
2023/08/16 09:55:35;;;;;;;8.85;5.47;;;;;;;36.43;100.00;99556.84;5136482;28;20150;-62
2023/08/16 09:58:02;;;;;;;9.65;6.20;;;;;;;36.71;100.00;99548.00;5136305;28;20047;-58
2023/08/16 10:00:30;;;;;;;11.15;5.43;;;;;;;36.18;100.00;99544.66;5136647;28;20047;-57
2023/08/16 10:02:58;;;;;;;11.35;5.47;;;;;;;36.58;100.00;99562.16;5136507;28;20066;-60
2023/08/16 10:05:25;;;;;;;11.90;8.57;;;;;;;36.96;100.00;99543.78;5136280;28;20084;-60
2023/08/16 10:07:53;;;;;;;11.85;8.50;;;;;;;37.00;100.00;99563.50;5136142;27;20058;-60
2023/08/16 10:10:19;;;;;;;9.88;6.18;;;;;;;36.38;100.00;99551.97;5136638;28;20507;-56
2023/08/16 10:12:46;;;;;;;6.80;5.00;;;;;;;35.91;100.00;99555.75;5136423;28;20097;-58
2023/08/16 10:15:12;;;;;;;9.60;5.35;;;;;;;35.16;100.00;99538.09;5136602;28;20117;-62
2023/08/16 10:17:40;;;;;;;7.78;5.30;;;;;;;34.26;100.00;99513.56;5136178;28;20057;-61
2023/08/16 10:20:14;;;;;;;12.65;9.48;;;;;;;35.88;100.00;99536.84;5135913;28;20047;-59
2023/08/16 10:22:42;;;;;;;6.07;4.95;;;;;;;35.38;100.00;99552.22;5135963;28;20479;-61
2023/08/16 10:25:13;;;;;;;7.80;4.97;;;;;;;35.57;100.00;99549.53;5136035;28;20425;-63
2023/08/16 10:27:42;;;;;;;10.52;5.70;;;;;;;35.72;100.00;99552.81;5137704;27;20097;-61
2023/08/16 10:30:16;;;;;;;9.38;4.78;;;;;;;35.12;100.00;99555.47;5139601;28;20369;-61
2023/08/16 10:32:45;;;;;;;6.40;5.00;;;;;;;35.25;100.00;99554.91;5139701;28;20047;-59
2023/08/16 10:35:12;;;;;;;10.00;7.32;;;;;;;36.19;100.00;99572.66;5139332;28;20142;-60
2023/08/16 10:37:38;;;;;;;7.40;5.53;;;;;;;34.62;100.00;99545.84;5139819;27;20047;-63
2023/08/16 10:40:15;;;;;;;8.35;4.63;;;;;;;34.52;100.00;99521.78;5139222;28;20476;-60
2023/08/16 10:42:49;;;;;;;6.35;5.40;;;;;;;35.42;100.00;99529.13;5139492;28;20142;-59
2023/08/16 10:45:21;;;;;;;8.65;6.00;;;;;;;35.44;100.00;99535.09;5139382;28;20062;-63
2023/08/16 10:47:48;;;;;;;9.55;5.70;;;;;;;34.34;100.00;99520.25;5139243;28;20054;-60
2023/08/16 10:50:14;;;;;;;8.45;5.45;;;;;;;34.68;100.00;99523.03;5139685;28;20043;-60
2023/08/16 10:52:42;;;;;;;9.95;7.22;;;;;;;35.07;100.00;99536.34;5139214;28;20055;-61
2023/08/16 10:55:08;;;;;;;11.45;5.03;;;;;;;34.24;100.00;99518.22;5139503;28;20058;-62
2023/08/16 10:57:34;;;;;;;11.68;7.43;;;;;;;35.38;100.00;99520.88;5139260;28;20492;-58
2023/08/16 11:00:03;;;;;;;8.30;5.40;;;;;;;35.84;100.00;99556.34;5139507;28;20111;-60
2023/08/16 11:02:31;;;;;;;9.02;5.70;;;;;;;36.02;100.00;99552.03;5138947;28;20074;-57
2023/08/16 11:04:58;;;;;;;9.32;5.43;;;;;;;34.99;100.00;99536.13;5139373;28;20115;-59
2023/08/16 11:07:25;;;;;;;8.65;4.95;;;;;;;35.00;100.00;99534.81;5138924;27;20055;-57
2023/08/16 11:09:51;;;;;;;8.05;5.43;;;;;;;35.07;100.00;99539.97;5139017;28;20051;-59
2023/08/16 11:12:17;;;;;;;7.22;4.70;;;;;;;33.71;100.00;99501.69;5139206;28;20050;-58
2023/08/16 11:14:44;;;;;;;35.05;6.53;;;;;;;33.73;100.00;99499.13;5139185;28;20409;-55